Ava, Missouri
Current Conditions -  °F | °C
As of 3:45 PM on Thursday 18 Dec 2014 (Local Time) from KBBG Reporting Station
Haze Haze  
Wind Chill: 35°   Ceiling: 300
Heat Index: 39°   Visibility: 3mi
Dew Point: 37°   Wind: 6mph
Humidity: 93%   Direction: 90°E
Pressure: 30.15"   Gusts: NA
Location:  36.95°N, 92.66°W
Report Text: KBBG 182145Z 09005KT 3SM BR OVC003 04/03 A3015
Loading
Personal Weather Stations






























Interactive Weather Map New forecast layout! Learn more

10-Day Weather Forecast

Advertisements
Track Severe Weather on mobile